Time;durP1;ratioP1;P1;durP2;ratioP2;P2;SDS_P1;SDS_P2;PMS_P1;PMS_P2;Temp;Humidity;BMP_temperature;BMP_pressure;BME280_temperature;BME280_humidity;BME280_pressure;Samples;Min_cycle;Max_cycle;Signal;HPM_P1;HPM_P2
2023/03/06 00:01:31;;;;;;;19.73;13.48;;;2.90;99.90;;;;;;5089399;28;20086;-51
2023/03/06 00:03:56;;;;;;;20.30;13.65;;;2.80;99.90;;;;;;5090549;28;20067;-51
2023/03/06 00:06:22;;;;;;;19.92;13.73;;;2.70;99.90;;;;;;5090712;28;20036;-51
2023/03/06 00:08:48;;;;;;;13.57;8.52;;;2.60;99.90;;;;;;5108664;27;20370;-51
2023/03/06 00:11:14;;;;;;;10.73;6.82;;;;;;;;;;5122045;27;20030;-51
2023/03/06 00:13:41;;;;;;;16.00;11.40;;;2.10;99.90;;;;;;5122004;27;20047;-50
2023/03/06 00:16:07;;;;;;;18.58;12.27;;;2.20;99.90;;;;;;5105149;27;20042;-52
2023/03/06 00:18:33;;;;;;;14.43;9.27;;;2.30;99.90;;;;;;5121932;27;20047;-51
2023/03/06 00:20:59;;;;;;;17.70;11.13;;;2.20;99.90;;;;;;5158514;27;20539;-51
2023/03/06 00:23:26;;;;;;;16.90;11.90;;;2.20;99.90;;;;;;5158528;27;20030;-51
2023/03/06 00:25:52;;;;;;;17.77;12.57;;;2.30;99.90;;;;;;5105131;27;20083;-51
2023/03/06 00:28:18;;;;;;;19.00;11.30;;;2.30;99.90;;;;;;5158084;27;20034;-51
2023/03/06 00:30:45;;;;;;;18.23;11.50;;;2.40;99.90;;;;;;5158135;27;20026;-51
2023/03/06 00:33:11;;;;;;;18.92;12.10;;;2.50;99.90;;;;;;5157986;27;20035;-51
2023/03/06 00:35:40;;;;;;;16.10;11.68;;;2.70;99.90;;;;;;5158387;27;20035;-52
2023/03/06 00:38:06;;;;;;;21.77;12.85;;;;;;;;;;5158310;27;20046;-51
2023/03/06 00:40:32;;;;;;;21.48;13.18;;;2.60;99.90;;;;;;5157803;27;20027;-51
2023/03/06 00:42:58;;;;;;;22.67;14.35;;;2.80;99.90;;;;;;5157769;27;20046;-53
2023/03/06 00:45:24;;;;;;;22.10;13.90;;;2.80;99.90;;;;;;5158008;27;20378;-51
2023/03/06 00:47:49;;;;;;;23.40;13.15;;;2.80;99.90;;;;;;5157697;27;20091;-53
2023/03/06 00:50:15;;;;;;;19.17;12.40;;;2.60;99.90;;;;;;5104563;27;20050;-53
2023/03/06 00:52:41;;;;;;;22.88;13.10;;;2.60;99.90;;;;;;5157718;27;20501;-51
2023/03/06 00:55:07;;;;;;;18.80;12.20;;;2.70;99.90;;;;;;5158111;27;20031;-53
2023/03/06 00:57:33;;;;;;;22.20;13.18;;;2.70;99.90;;;;;;5157814;27;20054;-51
2023/03/06 00:59:58;;;;;;;22.80;13.02;;;2.50;99.90;;;;;;5121182;27;20070;-52
2023/03/06 01:02:25;;;;;;;22.38;13.63;;;2.50;99.90;;;;;;5157749;27;20027;-51
2023/03/06 01:04:51;;;;;;;28.15;15.20;;;;;;;;;;5157402;27;20040;-51
2023/03/06 01:07:16;;;;;;;21.02;12.95;;;2.30;99.90;;;;;;5157949;27;20065;-51
2023/03/06 01:09:42;;;;;;;20.48;11.95;;;2.30;99.90;;;;;;5121325;27;20082;-51
2023/03/06 01:12:08;;;;;;;22.08;13.30;;;2.20;99.90;;;;;;5157640;27;20041;-51
2023/03/06 01:14:34;;;;;;;20.98;12.98;;;2.30;99.90;;;;;;5087135;27;20393;-51
2023/03/06 01:17:00;;;;;;;18.58;12.27;;;2.50;99.90;;;;;;5157682;27;20038;-51
2023/03/06 01:19:25;;;;;;;20.80;12.57;;;2.60;99.90;;;;;;5155922;27;20042;-51
2023/03/06 01:21:51;;;;;;;17.90;12.13;;;2.60;99.90;;;;;;5157387;27;20031;-51
2023/03/06 01:24:17;;;;;;;19.45;12.02;;;2.60;99.90;;;;;;5157060;27;20019;-51
2023/03/06 01:26:43;;;;;;;16.58;10.57;;;2.60;99.90;;;;;;5157068;27;20034;-51
2023/03/06 01:29:08;;;;;;;21.02;12.18;;;2.50;99.90;;;;;;5157452;27;20699;-51
2023/03/06 01:31:34;;;;;;;20.00;12.35;;;2.50;99.90;;;;;;5138508;27;20080;-51
2023/03/06 01:34:00;;;;;;;18.90;12.35;;;2.40;99.90;;;;;;5157100;27;20031;-51
2023/03/06 01:36:26;;;;;;;17.20;11.30;;;2.30;99.90;;;;;;5156888;27;20035;-50
2023/03/06 01:38:51;;;;;;;17.10;11.55;;;2.30;99.90;;;;;;5157224;27;20039;-51
2023/03/06 01:41:19;;;;;;;18.60;11.75;;;2.40;99.90;;;;;;5157203;27;20026;-51
2023/03/06 01:43:46;;;;;;;21.60;11.95;;;2.20;99.90;;;;;;5156889;27;20107;-50
2023/03/06 01:46:40;;;;;;;21.08;11.23;;;2.10;99.90;;;;;;5156839;27;20370;-51
2023/03/06 01:49:18;;;;;;;16.05;11.27;;;2.10;99.90;;;;;;5156487;27;20390;-51
2023/03/06 01:52:05;;;;;;;17.23;11.13;;;2.10;99.90;;;;;;5156484;27;20053;-51
2023/03/06 01:54:49;;;;;;;18.20;11.40;;;2.20;99.90;;;;;;5156735;27;20031;-51
2023/03/06 01:57:22;;;;;;;22.50;12.80;;;2.10;99.90;;;;;;5156383;27;20038;-50
2023/03/06 01:59:58;;;;;;;20.80;14.40;;;2.40;99.90;;;;;;5156338;27;20062;-50
2023/03/06 02:02:24;;;;;;;18.13;12.10;;;2.40;99.90;;;;;;5156262;27;20038;-51
2023/03/06 02:04:50;;;;;;;16.70;11.52;;;2.40;99.90;;;;;;5156285;27;20586;-51
2023/03/06 02:07:19;;;;;;;17.50;11.32;;;2.40;99.90;;;;;;5156428;27;20031;-51
2023/03/06 02:09:45;;;;;;;16.75;10.55;;;2.30;99.90;;;;;;5155879;27;20038;-50
2023/03/06 02:12:15;;;;;;;18.65;12.70;;;2.20;99.90;;;;;;5119952;27;20087;-50
2023/03/06 02:14:42;;;;;;;19.35;13.07;;;2.30;99.90;;;;;;5120485;27;20041;-51
2023/03/06 02:17:10;;;;;;;18.48;12.85;;;2.60;99.90;;;;;;5155793;27;20105;-51
2023/03/06 02:19:47;;;;;;;19.40;13.63;;;2.60;99.90;;;;;;5102263;27;20125;-51
2023/03/06 02:22:13;;;;;;;20.15;14.05;;;2.50;99.90;;;;;;5156303;27;20029;-52
2023/03/06 02:24:53;;;;;;;22.70;13.95;;;2.60;99.90;;;;;;5155534;27;20038;-53
2023/03/06 02:27:21;;;;;;;19.35;12.50;;;2.70;99.90;;;;;;5156106;27;20396;-51
2023/03/06 02:29:47;;;;;;;20.38;13.55;;;2.40;99.90;;;;;;5155430;27;20030;-51
2023/03/06 02:32:12;;;;;;;19.52;12.98;;;2.30;99.90;;;;;;5155859;27;20027;-51
2023/03/06 02:34:38;;;;;;;19.80;12.80;;;2.10;99.90;;;;;;5156259;27;20354;-52
2023/03/06 02:37:09;;;;;;;18.58;12.35;;;1.90;99.90;;;;;;5155910;27;20113;-51
2023/03/06 02:39:40;;;;;;;18.20;12.85;;;2.00;99.90;;;;;;5155613;27;20031;-54
2023/03/06 02:42:06;;;;;;;19.05;11.38;;;2.00;99.90;;;;;;5155879;27;20083;-53
2023/03/06 02:44:34;;;;;;;17.70;12.60;;;1.90;99.90;;;;;;5155400;27;20066;-50
2023/03/06 02:47:00;;;;;;;17.90;11.70;;;1.80;99.90;;;;;;5155816;27;20045;-51
2023/03/06 02:49:26;;;;;;;18.17;12.15;;;1.80;99.90;;;;;;5138946;27;20478;-51
2023/03/06 02:51:51;;;;;;;16.20;12.32;;;1.70;99.90;;;;;;5134597;27;20492;-53
2023/03/06 02:54:17;;;;;;;18.40;12.65;;;1.60;99.90;;;;;;5135211;27;20038;-52
2023/03/06 02:56:46;;;;;;;23.40;13.68;;;1.60;99.90;;;;;;5135151;27;20027;-51
2023/03/06 02:59:12;;;;;;;21.23;12.82;;;1.60;99.90;;;;;;5098818;27;20046;-53
2023/03/06 03:01:37;;;;;;;19.27;13.00;;;1.60;99.90;;;;;;5134710;27;20031;-53
2023/03/06 03:04:03;;;;;;;19.58;12.10;;;1.70;99.90;;;;;;5134740;27;20030;-53
2023/03/06 03:06:29;;;;;;;20.58;12.90;;;1.80;99.90;;;;;;5134836;27;20062;-53
2023/03/06 03:08:55;;;;;;;20.42;13.65;;;1.90;99.90;;;;;;5134498;27;20100;-53
2023/03/06 03:11:20;;;;;;;18.83;13.32;;;1.90;99.90;;;;;;5134551;27;20423;-51
2023/03/06 03:13:46;;;;;;;20.85;12.60;;;1.80;99.90;;;;;;5134284;27;20478;-51
2023/03/06 03:16:14;;;;;;;20.92;12.68;;;1.90;99.90;;;;;;5134432;27;20148;-53
2023/03/06 03:18:43;;;;;;;20.25;13.70;;;2.10;99.90;;;;;;5133826;27;20055;-53
2023/03/06 03:21:11;;;;;;;25.30;17.08;;;2.10;99.90;;;;;;5134779;27;20035;-51
2023/03/06 03:23:37;;;;;;;33.38;22.02;;;2.20;99.90;;;;;;5133952;27;20035;-51
2023/03/06 03:26:09;;;;;;;26.70;20.02;;;2.20;99.90;;;;;;5134700;27;20037;-52
2023/03/06 03:28:35;;;;;;;27.25;16.52;;;2.30;99.90;;;;;;5134423;27;20030;-53
2023/03/06 03:31:05;;;;;;;27.23;16.15;;;2.20;99.90;;;;;;5134567;27;20491;-52
2023/03/06 03:33:31;;;;;;;23.38;15.00;;;2.20;99.90;;;;;;5134701;27;20073;-53
2023/03/06 03:35:59;;;;;;;20.63;14.57;;;2.30;99.90;;;;;;5134256;27;20497;-52
2023/03/06 03:38:25;;;;;;;25.50;17.80;;;2.20;99.90;;;;;;5134501;27;20634;-51
2023/03/06 03:40:51;;;;;;;37.97;28.88;;;2.20;99.90;;;;;;5134596;27;20439;-52
2023/03/06 03:43:16;;;;;;;20.95;16.13;;;2.00;99.90;;;;;;5137062;27;20031;-53
2023/03/06 03:45:42;;;;;;;25.45;19.38;;;2.10;99.90;;;;;;5138288;27;20038;-53
2023/03/06 03:48:08;;;;;;;42.70;26.63;;;1.90;99.90;;;;;;5138735;27;20031;-50
2023/03/06 03:50:35;;;;;;;53.78;31.00;;;1.70;99.90;;;;;;5138574;27;20381;-54
2023/03/06 03:53:00;;;;;;;35.53;19.67;;;1.60;99.90;;;;;;5138158;27;20035;-52
2023/03/06 03:55:28;;;;;;;28.05;18.23;;;1.60;99.90;;;;;;5138166;27;20038;-52
2023/03/06 03:57:53;;;;;;;33.33;18.60;;;1.60;99.90;;;;;;5138170;27;20030;-51
2023/03/06 04:00:19;;;;;;;56.90;28.15;;;1.60;99.90;;;;;;5085058;27;20398;-50
2023/03/06 04:02:45;;;;;;;35.17;20.98;;;1.60;99.90;;;;;;5137789;27;20122;-51
2023/03/06 04:05:13;;;;;;;21.77;14.65;;;1.60;99.90;;;;;;5138082;27;20070;-50
2023/03/06 04:07:40;;;;;;;21.55;13.55;;;1.80;99.90;;;;;;5137821;27;20432;-50
2023/03/06 04:10:08;;;;;;;19.08;14.68;;;1.90;99.90;;;;;;5138431;27;20035;-52
2023/03/06 04:12:35;;;;;;;35.75;19.65;;;2.00;99.90;;;;;;5138044;27;20027;-51
2023/03/06 04:15:01;;;;;;;47.92;27.70;;;2.00;99.90;;;;;;5137714;27;20392;-50
2023/03/06 04:17:29;;;;;;;42.05;26.73;;;1.90;99.90;;;;;;5137780;27;20397;-50
2023/03/06 04:19:55;;;;;;;30.65;19.48;;;2.00;99.90;;;;;;5137730;27;20051;-50
2023/03/06 04:22:20;;;;;;;16.92;12.73;;;2.10;99.90;;;;;;5138083;27;20038;-50
2023/03/06 04:24:48;;;;;;;20.35;12.65;;;2.20;99.90;;;;;;5137576;27;20401;-50
2023/03/06 04:27:14;;;;;;;18.35;11.98;;;2.20;99.90;;;;;;5119001;27;20424;-50
2023/03/06 04:29:40;;;;;;;16.77;9.45;;;2.10;99.90;;;;;;5137291;27;20031;-50
2023/03/06 04:32:06;;;;;;;17.10;10.75;;;2.00;99.90;;;;;;5137872;27;20509;-52
2023/03/06 04:34:32;;;;;;;18.13;11.30;;;2.10;99.90;;;;;;5137765;27;20036;-50
2023/03/06 04:36:57;;;;;;;19.35;11.73;;;1.90;99.90;;;;;;5137224;27;20108;-51
2023/03/06 04:39:23;;;;;;;19.95;12.75;;;2.00;99.90;;;;;;5118134;27;20547;-51
2023/03/06 04:41:49;;;;;;;17.70;10.27;;;2.00;99.90;;;;;;5135225;27;20500;-52
2023/03/06 04:44:14;;;;;;;19.42;12.43;;;1.90;99.90;;;;;;5137367;27;20496;-52
2023/03/06 04:46:40;;;;;;;26.98;15.45;;;2.00;99.90;;;;;;5137198;27;20031;-53
2023/03/06 04:49:06;;;;;;;25.13;14.45;;;2.10;99.90;;;;;;5137025;27;20039;-50
2023/03/06 04:51:32;;;;;;;33.00;16.30;;;2.20;99.90;;;;;;5137284;27;20031;-52
2023/03/06 04:53:58;;;;;;;38.40;19.42;;;2.30;99.90;;;;;;5136527;27;20027;-53
2023/03/06 04:56:23;;;;;;;32.75;18.10;;;2.40;99.90;;;;;;5115530;27;20031;-52
2023/03/06 04:58:49;;;;;;;47.25;25.65;;;2.40;99.90;;;;;;5137287;27;20067;-53
2023/03/06 05:01:15;;;;;;;29.30;18.58;;;2.20;99.90;;;;;;5137151;27;20351;-52
2023/03/06 05:03:41;;;;;;;26.90;17.27;;;2.20;99.90;;;;;;5136932;27;20168;-53
2023/03/06 05:06:06;;;;;;;25.77;16.27;;;2.10;99.90;;;;;;5136956;27;20027;-50
2023/03/06 05:08:32;;;;;;;25.38;16.20;;;2.10;99.90;;;;;;5136797;27;20370;-50
2023/03/06 05:11:00;;;;;;;24.20;15.93;;;2.00;99.90;;;;;;5137154;27;20088;-50
2023/03/06 05:13:26;;;;;;;38.85;24.35;;;2.00;99.90;;;;;;5136585;27;20042;-52
2023/03/06 05:15:52;;;;;;;34.78;21.67;;;2.10;99.90;;;;;;5136692;27;20023;-51
2023/03/06 05:18:19;;;;;;;29.35;16.63;;;2.30;99.90;;;;;;5136508;27;20055;-50
2023/03/06 05:20:45;;;;;;;22.75;15.65;;;2.40;99.90;;;;;;5133504;27;20063;-51
2023/03/06 05:23:10;;;;;;;24.30;15.27;;;2.30;99.90;;;;;;5136285;27;20062;-51
2023/03/06 05:25:40;;;;;;;24.67;17.98;;;2.40;99.90;;;;;;5136458;27;20039;-51
2023/03/06 05:28:06;;;;;;;25.52;16.70;;;2.40;99.90;;;;;;5136103;27;20043;-50
2023/03/06 05:30:32;;;;;;;22.58;15.45;;;2.40;99.90;;;;;;5136274;27;20023;-51
2023/03/06 05:32:59;;;;;;;25.10;14.75;;;2.40;99.90;;;;;;5136183;27;20023;-51
2023/03/06 05:35:25;;;;;;;22.60;14.75;;;2.30;99.90;;;;;;5137426;27;20046;-51
2023/03/06 05:37:51;;;;;;;21.13;14.13;;;2.40;99.90;;;;;;5124699;27;20050;-51
2023/03/06 05:40:17;;;;;;;20.88;14.57;;;2.30;99.90;;;;;;5143839;27;20026;-50
2023/03/06 05:42:43;;;;;;;27.33;15.80;;;2.40;99.90;;;;;;5136401;27;20462;-51
2023/03/06 05:45:09;;;;;;;24.38;16.33;;;2.40;99.90;;;;;;5137535;27;20038;-52
2023/03/06 05:47:35;;;;;;;26.77;17.38;;;2.30;99.90;;;;;;5144162;27;20023;-51
2023/03/06 05:50:01;;;;;;;28.98;17.80;;;2.60;99.90;;;;;;5145370;27;20370;-51
2023/03/06 05:52:26;;;;;;;26.23;17.25;;;2.70;99.90;;;;;;5137084;27;20357;-52
2023/03/06 05:54:53;;;;;;;28.80;19.20;;;2.70;99.90;;;;;;5144133;27;20031;-50
2023/03/06 05:57:21;;;;;;;26.58;18.58;;;2.60;99.90;;;;;;5145929;27;20030;-51
2023/03/06 05:59:49;;;;;;;25.73;17.40;;;2.50;99.90;;;;;;5145661;27;20031;-52
2023/03/06 06:02:15;;;;;;;24.23;15.40;;;2.70;99.90;;;;;;5137941;27;20046;-51
2023/03/06 06:04:41;;;;;;;22.35;15.60;;;2.70;99.90;;;;;;5135122;27;20035;-50
2023/03/06 06:07:06;;;;;;;24.90;16.00;;;2.70;99.90;;;;;;5135710;27;20038;-51
2023/03/06 06:09:32;;;;;;;32.90;22.45;;;2.60;99.90;;;;;;5135600;27;20035;-51
2023/03/06 06:12:01;;;;;;;31.58;22.55;;;2.90;99.90;;;;;;5135516;27;20035;-52
2023/03/06 06:14:28;;;;;;;29.65;20.70;;;3.30;99.90;;;;;;5135579;27;20029;-50
2023/03/06 06:16:54;;;;;;;31.55;21.25;;;3.70;99.90;;;;;;5135505;27;20383;-50
2023/03/06 06:19:20;;;;;;;33.22;22.73;;;;;;;;;;5135198;27;20051;-50
2023/03/06 06:21:51;;;;;;;33.40;23.38;;;4.30;99.90;;;;;;5135289;27;20038;-50
2023/03/06 06:24:19;;;;;;;41.55;25.85;;;4.80;99.90;;;;;;5135171;27;20412;-51
2023/03/06 06:26:46;;;;;;;48.80;30.02;;;;;;;;;;5135324;27;20042;-50
2023/03/06 06:29:12;;;;;;;38.90;27.38;;;5.60;99.90;;;;;;5115827;27;20047;-50
2023/03/06 06:31:38;;;;;;;42.60;27.50;;;;;;;;;;5115851;27;20172;-51
2023/03/06 06:34:05;;;;;;;40.03;26.48;;;6.60;99.90;;;;;;5102604;27;20508;-51
2023/03/06 06:36:32;;;;;;;40.35;25.27;;;6.90;99.90;;;;;;5102367;27;20122;-51
2023/03/06 06:38:58;;;;;;;39.90;26.15;;;6.70;99.90;;;;;;5146026;27;20466;-50
2023/03/06 06:41:25;;;;;;;35.67;23.65;;;6.30;99.90;;;;;;5135237;27;20031;-51
2023/03/06 06:43:51;;;;;;;26.73;17.33;;;6.60;99.90;;;;;;5154287;27;20057;-51
2023/03/06 06:46:17;;;;;;;25.98;16.42;;;6.00;99.90;;;;;;5155519;27;20079;-50
2023/03/06 06:48:43;;;;;;;27.75;17.88;;;6.40;99.90;;;;;;5155700;27;20030;-51
2023/03/06 06:51:09;;;;;;;16.13;10.57;;;6.50;99.90;;;;;;5155482;27;20034;-50
2023/03/06 06:53:34;;;;;;;20.90;13.02;;;6.10;99.90;;;;;;5137070;27;20039;-52
2023/03/06 06:56:00;;;;;;;24.67;15.50;;;6.10;99.90;;;;;;5134645;27;20027;-50
2023/03/06 06:58:26;;;;;;;22.58;14.35;;;6.50;99.90;;;;;;5134542;27;20508;-50
2023/03/06 07:00:52;;;;;;;21.45;12.48;;;6.50;99.90;;;;;;5134735;27;20378;-51
2023/03/06 07:03:17;;;;;;;22.42;13.57;;;6.60;99.90;;;;;;5134575;27;20027;-50
2023/03/06 07:05:43;;;;;;;19.10;13.23;;;7.10;99.90;;;;;;5081876;27;20387;-51
2023/03/06 07:08:09;;;;;;;19.40;13.85;;;7.50;99.90;;;;;;5134291;27;20368;-51
2023/03/06 07:10:38;;;;;;;19.42;14.40;;;;;;;;;;5086224;27;20461;-51
2023/03/06 07:13:04;;;;;;;18.27;12.98;;;9.00;99.90;;;;;;5152062;27;20027;-51
2023/03/06 07:15:30;;;;;;;20.00;14.45;;;9.50;99.90;;;;;;5151519;27;20031;-51
2023/03/06 07:17:56;;;;;;;19.92;15.02;;;;;;;;;;5134012;27;20045;-51
2023/03/06 07:20:22;;;;;;;19.25;13.38;;;;;;;;;;5134338;27;20035;-51
2023/03/06 07:22:48;;;;;;;21.38;14.98;;;12.50;99.90;;;;;;5134631;27;20023;-51
2023/03/06 07:25:14;;;;;;;24.08;14.48;;;11.80;99.90;;;;;;5146711;27;20508;-51
2023/03/06 07:27:40;;;;;;;23.23;17.20;;;11.00;99.90;;;;;;5115557;27;20031;-51
2023/03/06 07:30:07;;;;;;;15.13;12.07;;;12.90;99.90;;;;;;5138037;27;20420;-51
2023/03/06 07:32:32;;;;;;;18.45;12.90;;;12.40;99.80;;;;;;5081328;28;20043;-51
2023/03/06 07:34:58;;;;;;;19.80;14.55;;;12.70;99.60;;;;;;5134169;28;20060;-51
2023/03/06 07:37:24;;;;;;;16.23;12.68;;;;;;;;;;5133945;27;20035;-51
2023/03/06 07:39:50;;;;;;;17.60;13.05;;;13.20;99.90;;;;;;5145264;27;20088;-51
2023/03/06 07:42:16;;;;;;;16.17;10.88;;;13.00;96.90;;;;;;5091175;27;20490;-51
2023/03/06 07:44:41;;;;;;;20.40;13.88;;;11.00;99.90;;;;;;5067650;27;20073;-51
2023/03/06 07:47:07;;;;;;;17.60;13.07;;;;;;;;;;5084621;27;20423;-51
2023/03/06 07:49:33;;;;;;;20.35;13.27;;;10.40;99.90;;;;;;5154760;27;20470;-51
2023/03/06 07:52:00;;;;;;;19.00;14.73;;;9.70;99.90;;;;;;5154657;27;20041;-51
2023/03/06 07:54:27;;;;;;;15.60;11.48;;;9.80;99.90;;;;;;5154764;27;20051;-51
2023/03/06 07:56:52;;;;;;;15.70;10.07;;;9.40;99.90;;;;;;5154918;27;20041;-51
2023/03/06 07:59:18;;;;;;;18.48;12.20;;;9.00;99.90;;;;;;5154683;27;20039;-51
2023/03/06 08:01:44;;;;;;;16.92;13.07;;;9.10;99.90;;;;;;5101407;27;20091;-51
2023/03/06 08:04:10;;;;;;;15.27;10.98;;;9.50;99.90;;;;;;5154666;27;20034;-51
2023/03/06 08:06:36;;;;;;;14.70;10.50;;;9.10;99.90;;;;;;5154374;27;20083;-51
2023/03/06 08:09:01;;;;;;;14.85;11.32;;;9.80;99.90;;;;;;5101208;27;20039;-51
2023/03/06 08:11:29;;;;;;;16.45;11.20;;;10.90;99.90;;;;;;5154343;27;20582;-51
2023/03/06 08:13:57;;;;;;;11.05;5.68;;;11.20;99.90;;;;;;5101174;27;20081;-51
2023/03/06 08:16:26;;;;;;;15.30;10.65;;;11.50;99.90;;;;;;5154422;27;20019;-51
2023/03/06 08:18:52;;;;;;;15.52;10.82;;;12.10;99.90;;;;;;5154242;27;20050;-51
2023/03/06 08:21:21;;;;;;;11.82;8.30;;;12.20;99.00;;;;;;5118008;27;20070;-51
2023/03/06 08:23:47;;;;;;;14.32;11.05;;;11.80;99.00;;;;;;5154354;27;20029;-51
2023/03/06 08:26:15;;;;;;;34.05;20.70;;;12.50;99.30;;;;;;5154703;27;20034;-51
2023/03/06 08:28:41;;;;;;;15.63;10.70;;;12.60;98.50;;;;;;5156161;27;20038;-51
2023/03/06 08:31:18;;;;;;;13.93;9.65;;;12.10;98.20;;;;;;5113332;27;20039;-52
2023/03/06 08:33:43;;;;;;;9.75;5.55;;;11.50;98.50;;;;;;5150443;27;20023;-51
2023/03/06 08:36:09;;;;;;;14.32;9.35;;;10.10;98.10;;;;;;5137664;27;20363;-51
2023/03/06 08:38:41;;;;;;;11.77;5.95;;;10.20;99.20;;;;;;5108777;27;20035;-53
2023/03/06 08:41:10;;;;;;;12.13;7.45;;;10.10;99.90;;;;;;5099442;28;20088;-51
2023/03/06 08:43:35;;;;;;;16.38;9.48;;;10.20;99.40;;;;;;5114191;28;20043;-52
2023/03/06 08:46:01;;;;;;;8.30;5.80;;;10.60;99.90;;;;;;5097397;28;20035;-51
2023/03/06 08:48:27;;;;;;;14.07;8.75;;;10.50;98.70;;;;;;5114321;28;20394;-51
2023/03/06 08:50:53;;;;;;;12.65;7.30;;;10.40;99.90;;;;;;5114490;28;20126;-51
2023/03/06 08:53:19;;;;;;;15.60;10.68;;;10.50;99.90;;;;;;5114282;28;20028;-52
2023/03/06 08:55:45;;;;;;;15.88;10.57;;;10.40;99.90;;;;;;5114377;28;20104;-51
2023/03/06 08:58:11;;;;;;;18.17;11.20;;;10.70;99.90;;;;;;5114582;28;20035;-51
2023/03/06 09:00:37;;;;;;;15.63;9.52;;;11.30;99.90;;;;;;5097137;28;20486;-52
2023/03/06 09:03:03;;;;;;;10.93;8.00;;;10.70;99.90;;;;;;5114350;28;20027;-51
2023/03/06 09:05:29;;;;;;;17.55;12.50;;;11.10;99.90;;;;;;5114041;28;20027;-51
2023/03/06 09:07:54;;;;;;;19.67;12.45;;;12.60;99.50;;;;;;5114069;28;20538;-51
2023/03/06 09:10:21;;;;;;;15.98;9.63;;;;;;;;;;5114028;28;20122;-52
2023/03/06 09:12:47;;;;;;;16.40;10.98;;;13.10;96.50;;;;;;5131391;27;20062;-51
2023/03/06 09:15:14;;;;;;;18.40;11.98;;;12.80;96.40;;;;;;5136944;27;20027;-51
2023/03/06 09:17:40;;;;;;;19.10;12.15;;;12.80;96.70;;;;;;5136722;27;20450;-51
2023/03/06 09:20:07;;;;;;;20.52;11.90;;;12.80;97.00;;;;;;5136910;27;20054;-51
2023/03/06 09:22:34;;;;;;;17.40;11.63;;;12.50;96.70;;;;;;5100809;27;20122;-51
2023/03/06 09:25:00;;;;;;;18.08;12.40;;;12.20;96.70;;;;;;5136473;27;20387;-51
2023/03/06 09:27:28;;;;;;;19.08;13.98;;;11.90;98.10;;;;;;5136572;27;20038;-51
2023/03/06 09:29:55;;;;;;;14.77;9.65;;;11.90;98.00;;;;;;5136419;27;20062;-51
2023/03/06 09:32:21;;;;;;;21.08;14.80;;;12.00;98.10;;;;;;5136369;27;20023;-51
2023/03/06 09:34:47;;;;;;;24.83;14.55;;;13.60;99.30;;;;;;5136187;27;20030;-51
2023/03/06 09:37:13;;;;;;;18.83;13.50;;;;;;;;;;5136403;27;20098;-51
2023/03/06 09:39:40;;;;;;;17.10;11.40;;;;;;;;;;5115979;28;20035;-52
2023/03/06 09:42:13;;;;;;;19.83;12.70;;;15.80;94.70;;;;;;5117194;27;20140;-52
2023/03/06 09:44:42;;;;;;;15.80;11.40;;;15.90;94.20;;;;;;5135906;27;20084;-51
2023/03/06 09:47:27;;;;;;;18.52;12.85;;;16.20;94.00;;;;;;5136113;27;20387;-51
2023/03/06 09:50:26;;;;;;;16.30;10.57;;;16.40;93.20;;;;;;5135705;27;20046;-51
2023/03/06 09:53:16;;;;;;;17.13;12.45;;;16.30;95.60;;;;;;5136197;27;20030;-52
2023/03/06 09:55:49;;;;;;;19.23;10.10;;;16.80;99.90;;;;;;5135667;27;20031;-52
2023/03/06 09:58:17;;;;;;;;;;;15.40;92.30;;;;;;5136414;27;20027;-52
2023/03/06 10:01:00;;;;;;;21.70;14.45;;;;;;;;;;5135500;27;19904;-52
2023/03/06 10:03:33;;;;;;;20.70;14.65;;;16.00;96.60;;;;;;5134248;27;20046;-52
2023/03/06 10:06:04;;;;;;;14.23;7.82;;;16.80;92.90;;;;;;5135727;27;20027;-52
2023/03/06 10:08:50;;;;;;;21.17;12.93;;;15.70;92.50;;;;;;5135467;27;20103;-53
2023/03/06 10:11:25;;;;;;;21.90;15.27;;;;;;;;;;5135722;27;20076;-52
2023/03/06 10:14:15;;;;;;;18.25;13.25;;;16.10;93.30;;;;;;5135956;27;20084;-52
2023/03/06 10:16:41;;;;;;;19.85;12.35;;;16.40;92.90;;;;;;5135326;27;20019;-53
2023/03/06 10:19:14;;;;;;;18.27;11.85;;;16.30;91.50;;;;;;5135246;27;20414;-53
2023/03/06 10:21:54;;;;;;;16.10;11.15;;;16.40;91.20;;;;;;5135193;27;20019;-53
2023/03/06 10:24:54;;;;;;;15.02;10.02;;;16.30;91.30;;;;;;5135434;27;20051;-52
2023/03/06 10:27:44;;;;;;;21.48;12.93;;;15.50;91.60;;;;;;5135341;27;20059;-53
2023/03/06 10:30:13;;;;;;;13.60;8.77;;;15.30;92.70;;;;;;5135150;27;20035;-53
2023/03/06 10:33:07;;;;;;;17.42;12.30;;;14.50;91.80;;;;;;5134923;27;20027;-53
2023/03/06 10:35:45;;;;;;;17.23;11.68;;;14.90;92.70;;;;;;5135140;27;20091;-53
2023/03/06 10:38:25;;;;;;;15.55;10.23;;;14.70;92.90;;;;;;5135266;27;20031;-53
2023/03/06 10:41:11;;;;;;;23.02;13.57;;;14.10;92.80;;;;;;5134922;27;20098;-53
2023/03/06 10:43:42;;;;;;;17.08;11.88;;;14.20;93.60;;;;;;5134756;27;20481;-53
2023/03/06 10:46:11;;;;;;;17.75;12.27;;;14.00;93.20;;;;;;5134820;27;20023;-53
2023/03/06 10:48:39;;;;;;;21.38;12.63;;;14.20;93.60;;;;;;5134717;27;20398;-53
2023/03/06 10:51:17;;;;;;;18.02;11.60;;;14.30;93.90;;;;;;5134439;27;20161;-52
2023/03/06 10:53:54;;;;;;;16.30;11.43;;;14.40;93.60;;;;;;5135109;27;20035;-53
2023/03/06 10:56:44;;;;;;;16.65;11.25;;;15.10;93.80;;;;;;5135003;27;20023;-53
2023/03/06 10:59:24;;;;;;;17.27;11.75;;;15.30;93.20;;;;;;5134769;27;20363;-53
2023/03/06 11:02:28;;;;;;;14.48;8.57;;;15.40;93.20;;;;;;5134808;27;20076;-53
2023/03/06 11:04:55;;;;;;;19.25;12.02;;;15.00;92.20;;;;;;5134492;27;20023;-53
2023/03/06 11:07:24;;;;;;;17.35;12.45;;;15.00;92.70;;;;;;5134872;27;20094;-53
2023/03/06 11:09:56;;;;;;;16.42;11.27;;;14.70;92.90;;;;;;5134255;27;20034;-53
2023/03/06 11:12:21;;;;;;;16.25;10.75;;;14.90;91.50;;;;;;5134372;27;20034;-53
2023/03/06 11:15:06;;;;;;;16.20;9.73;;;15.90;92.80;;;;;;5134771;27;20374;-53
2023/03/06 11:17:33;;;;;;;13.07;9.65;;;;;;;;;;5098826;27;20424;-53
2023/03/06 11:20:11;;;;;;;18.77;11.02;;;;;;;;;;5134345;27;20095;-53
2023/03/06 11:22:38;;;;;;;14.25;10.60;;;;;;;;;;5134539;27;20098;-53
2023/03/06 11:25:05;;;;;;;15.82;10.75;;;;;;;;;;5134477;27;20027;-53
2023/03/06 11:27:33;;;;;;;18.40;13.18;;;;;;;;;;5098510;27;20036;-53
2023/03/06 11:30:01;;;;;;;15.73;11.93;;;;;;;;;;5133983;27;20039;-53
2023/03/06 11:32:44;;;;;;;15.32;11.88;;;19.50;93.00;;;;;;5134143;28;20050;-53
2023/03/06 11:35:13;;;;;;;12.63;9.30;;;;;;;;;;5134305;27;20034;-53
2023/03/06 11:37:41;;;;;;;17.48;11.48;;;17.80;99.90;;;;;;5134136;28;20110;-54
2023/03/06 11:40:10;;;;;;;23.08;14.82;;;17.70;91.40;;;;;;5134545;28;20030;-53
2023/03/06 11:42:58;;;;;;;16.92;10.85;;;17.90;90.90;;;;;;5133867;28;20596;-53
2023/03/06 11:45:32;;;;;;;20.55;11.73;;;17.70;88.80;;;;;;5134106;27;20019;-53
2023/03/06 11:48:07;;;;;;;14.77;10.23;;;;;;;;;;5134421;27;20062;-54
2023/03/06 11:51:01;;;;;;;13.25;8.85;;;19.00;93.70;;;;;;5138962;27;20022;-53
2023/03/06 11:53:36;;;;;;;15.63;9.95;;;17.90;87.30;;;;;;5140986;27;20024;-54
2023/03/06 11:56:06;;;;;;;12.50;10.32;;;;;;;;;;5115404;27;20035;-53
2023/03/06 11:58:51;;;;;;;11.05;7.70;;;;;;;;;;5154601;27;20094;-54
2023/03/06 12:01:35;;;;;;;12.77;9.35;;;18.00;99.90;;;;;;5154482;27;20102;-53
2023/03/06 12:04:01;;;;;;;11.80;9.20;;;;;;;;;;5156674;27;20110;-54
2023/03/06 12:06:43;;;;;;;12.77;9.27;;;;;;;;;;5158745;27;20073;-53
2023/03/06 12:09:19;;;;;;;13.15;9.43;;;;;;;;;;5158683;27;20043;-53
2023/03/06 12:12:18;;;;;;;12.82;8.00;;;20.10;95.50;;;;;;5158816;27;20106;-51
2023/03/06 12:15:01;;;;;;;14.27;9.52;;;20.30;86.00;;;;;;5154109;27;20034;-51
2023/03/06 12:17:56;;;;;;;13.32;8.43;;;20.10;85.60;;;;;;5158433;27;20125;-51
2023/03/06 12:20:28;;;;;;;10.65;8.10;;;19.70;84.70;;;;;;5158499;27;20030;-51
2023/03/06 12:23:30;;;;;;;13.10;8.73;;;19.80;84.30;;;;;;5158228;27;20030;-51
2023/03/06 12:26:23;;;;;;;14.40;10.15;;;19.90;86.60;;;;;;5158199;27;20110;-51
2023/03/06 12:29:01;;;;;;;13.73;9.00;;;19.50;85.30;;;;;;5157998;27;20378;-52
2023/03/06 12:31:39;;;;;;;15.60;10.60;;;19.30;85.60;;;;;;5158183;27;20030;-51
2023/03/06 12:34:23;;;;;;;14.15;9.75;;;18.90;85.80;;;;;;5158047;27;20031;-51
2023/03/06 12:37:14;;;;;;;13.90;10.38;;;18.20;85.60;;;;;;5157965;27;20038;-52
2023/03/06 12:39:58;;;;;;;12.90;9.50;;;;;;;;;;5158562;27;20031;-51
2023/03/06 12:42:54;;;;;;;14.70;10.20;;;17.80;92.10;;;;;;5158068;27;20106;-51
2023/03/06 12:45:38;;;;;;;13.68;9.30;;;17.30;88.00;;;;;;5158111;27;20022;-51
2023/03/06 12:48:19;;;;;;;22.52;12.43;;;17.20;89.50;;;;;;5157714;27;20101;-52
2023/03/06 12:50:46;;;;;;;14.95;10.32;;;17.20;88.90;;;;;;5158518;27;20454;-52
2023/03/06 12:53:35;;;;;;;15.15;9.95;;;17.60;88.50;;;;;;5158271;27;20080;-51
2023/03/06 12:56:02;;;;;;;15.00;10.05;;;17.60;87.60;;;;;;5156993;27;20077;-51